Ceylon — 9VMU6 — position and weather

sailwx.info

Track history (hours):
 
Tides and Currents Weather Stations Pressure Air Temp Water Temp Dewpoint Dewpoint Depression Visibility Wind Speed Wind Dir Waves Ship Positions

Ceylon

Last reported at 2017-Feb-18 06:08 UTC. Time now 2017-Feb-24 12:31 UTC.
Position S 00°13' W 047°25'.

Length 180 m; draft 9.1 m.

Type: Tanker. MMSI: 563847000.

Date/timePositionNaut miles runAvg speedWind from/ knotsBaromVisibWave heightAir tempDewpointWater temp
2017-Feb-18 06:08S 00°13' W 047°25'712.3
2017-Feb-18 05:33S 00°17' W 047°31'1212.0
2017-Feb-18 04:33S 00°23' W 047°41'7 5.7
2017-Feb-18 03:18S 00°21' W 047°48'912.6
2017-Feb-18 02:33S 00°12' W 047°49'191 7.6
2017-Feb-17 01:34N 00°06' W 050°59'2110.3
2017-Feb-16 23:33S 00°08' W 051°14'  
2017-Feb-14 02:26S 03°09' W 059°57'0 0.0
2017-Feb-12 03:30S 03°09' W 059°57'0 0.0
2017-Feb-12 00:33S 03°09' W 059°57'1 1.0
2017-Feb-11 23:29S 03°10' W 059°57'0 0.0
2017-Feb-11 22:29S 03°10' W 059°57'0 0.0
2017-Feb-11 21:29S 03°10' W 059°57'0 0.0
2017-Feb-11 20:11S 03°10' W 059°57'0 0.1
2017-Feb-11 19:29S 03°10' W 059°57'0 0.0
2017-Feb-11 18:20S 03°10' W 059°57'0 0.0
2017-Feb-11 17:32S 03°10' W 059°57'0 0.0
2017-Feb-11 16:26S 03°10' W 059°57'0 0.0
2017-Feb-11 15:32S 03°10' W 059°57'0 0.0
2017-Feb-11 14:32S 03°10' W 059°57'0 0.0
2017-Feb-11 13:33S 03°10' W 059°57'0 0.0
2017-Feb-11 02:29S 03°10' W 059°57'0 0.0
2017-Feb-11 01:32S 03°10' W 059°57'0 0.0
2017-Feb-11 00:23S 03°10' W 059°57'0 0.0
2017-Feb-10 23:32S 03°10' W 059°57'0 0.0
2017-Feb-10 22:29S 03°10' W 059°57'0 0.0
2017-Feb-10 21:33S 03°10' W 059°57'0 0.0
2017-Feb-10 20:32S 03°10' W 059°57'0 0.0
2017-Feb-10 19:32S 03°10' W 059°57'0 0.0
2017-Feb-10 18:32S 03°10' W 059°57'0 0.0
2017-Feb-10 17:32S 03°10' W 059°57'0 0.0
2017-Feb-10 16:26S 03°10' W 059°57'0 0.0
2017-Feb-10 15:24S 03°10' W 059°57'0 0.0
2017-Feb-10 13:29S 03°10' W 059°57'0 0.0
2017-Feb-10 12:29S 03°10' W 059°57'0 0.0
2017-Feb-10 11:29S 03°10' W 059°57'0 0.0
2017-Feb-10 10:32S 03°10' W 059°57'0 0.0
2017-Feb-10 09:33S 03°10' W 059°57'0 0.0
2017-Feb-10 08:33S 03°10' W 059°57'0 0.0
2017-Feb-10 07:33S 03°10' W 059°57'0 0.0
2017-Feb-10 06:33S 03°10' W 059°57'0 0.0
2017-Feb-10 05:33S 03°10' W 059°57'0 0.0
2017-Feb-10 04:30S 03°10' W 059°57'0 0.0
2017-Feb-10 03:24S 03°10' W 059°57'0 0.0
2017-Feb-10 02:33S 03°10' W 059°57'0 0.0
2017-Feb-10 01:24S 03°10' W 059°57'0 0.0
2017-Feb-10 00:29S 03°10' W 059°57'0 0.0
2017-Feb-09 23:33S 03°10' W 059°57'0 0.0
2017-Feb-09 22:33S 03°10' W 059°57'0 0.0
2017-Feb-09 21:27S 03°10' W 059°57'0 0.0
2017-Feb-09 20:32S 03°10' W 059°57'0 0.0
2017-Feb-09 19:29S 03°10' W 059°57'0 0.0
2017-Feb-09 18:28S 03°10' W 059°57'0 0.0
2017-Feb-09 17:29S 03°10' W 059°57'0 0.0
2017-Feb-09 15:17S 03°10' W 059°57'0 0.0
2017-Feb-09 14:29S 03°10' W 059°57'0 0.0
2017-Feb-09 13:29S 03°10' W 059°57'0 0.0
2017-Feb-09 12:32S 03°10' W 059°57'0 0.0
2017-Feb-09 11:26S 03°10' W 059°57'0 0.0
2017-Feb-09 10:34S 03°10' W 059°57'0 0.0
2017-Feb-09 09:33S 03°10' W 059°57'0 0.0
2017-Feb-09 08:33S 03°10' W 059°57'1 1.0
2017-Feb-09 07:27S 03°09' W 059°57'0 0.0
2017-Feb-09 05:33S 03°09' W 059°57'  
Track history (hours):
 
Tides and Currents Weather Stations Pressure Air Temp Water Temp Dewpoint Dewpoint Depression Visibility Wind Speed Wind Dir Waves Ship Positions

Ceylon

Last reported at 2017-Feb-18 06:08 UTC. Time now 2017-Feb-24 12:31 UTC.
Position S 00°13' W 047°25'.

Length 180 m; draft 9.1 m.

Type: Tanker. MMSI: 563847000.

Date/timePositionNaut miles runAvg speedWind from/ knotsBaromVisibWave heightAir tempDewpointWater temp
2017-Feb-18 06:08S 00°13' W 047°25'712.3
2017-Feb-18 05:33S 00°17' W 047°31'1212.0
2017-Feb-18 04:33S 00°23' W 047°41'7 5.7
2017-Feb-18 03:18S 00°21' W 047°48'912.6
2017-Feb-18 02:33S 00°12' W 047°49'191 7.6
2017-Feb-17 01:34N 00°06' W 050°59'2110.3
2017-Feb-16 23:33S 00°08' W 051°14'  
2017-Feb-14 02:26S 03°09' W 059°57'0 0.0
2017-Feb-12 03:30S 03°09' W 059°57'0 0.0
2017-Feb-12 00:33S 03°09' W 059°57'1 1.0
2017-Feb-11 23:29S 03°10' W 059°57'0 0.0
2017-Feb-11 22:29S 03°10' W 059°57'0 0.0
2017-Feb-11 21:29S 03°10' W 059°57'0 0.0
2017-Feb-11 20:11S 03°10' W 059°57'0 0.1
2017-Feb-11 19:29S 03°10' W 059°57'0 0.0
2017-Feb-11 18:20S 03°10' W 059°57'0 0.0
2017-Feb-11 17:32S 03°10' W 059°57'0 0.0
2017-Feb-11 16:26S 03°10' W 059°57'0 0.0
2017-Feb-11 15:32S 03°10' W 059°57'0 0.0
2017-Feb-11 14:32S 03°10' W 059°57'0 0.0
2017-Feb-11 13:33S 03°10' W 059°57'0 0.0
2017-Feb-11 02:29S 03°10' W 059°57'0 0.0
2017-Feb-11 01:32S 03°10' W 059°57'0 0.0
2017-Feb-11 00:23S 03°10' W 059°57'0 0.0
2017-Feb-10 23:32S 03°10' W 059°57'0 0.0
2017-Feb-10 22:29S 03°10' W 059°57'0 0.0
2017-Feb-10 21:33S 03°10' W 059°57'0 0.0
2017-Feb-10 20:32S 03°10' W 059°57'0 0.0
2017-Feb-10 19:32S 03°10' W 059°57'0 0.0
2017-Feb-10 18:32S 03°10' W 059°57'0 0.0
2017-Feb-10 17:32S 03°10' W 059°57'0 0.0
2017-Feb-10 16:26S 03°10' W 059°57'0 0.0
2017-Feb-10 15:24S 03°10' W 059°57'0 0.0
2017-Feb-10 13:29S 03°10' W 059°57'0 0.0
2017-Feb-10 12:29S 03°10' W 059°57'0 0.0
2017-Feb-10 11:29S 03°10' W 059°57'0 0.0
2017-Feb-10 10:32S 03°10' W 059°57'0 0.0
2017-Feb-10 09:33S 03°10' W 059°57'0 0.0
2017-Feb-10 08:33S 03°10' W 059°57'0 0.0
2017-Feb-10 07:33S 03°10' W 059°57'0 0.0
2017-Feb-10 06:33S 03°10' W 059°57'0 0.0
2017-Feb-10 05:33S 03°10' W 059°57'0 0.0
2017-Feb-10 04:30S 03°10' W 059°57'0 0.0
2017-Feb-10 03:24S 03°10' W 059°57'0 0.0
2017-Feb-10 02:33S 03°10' W 059°57'0 0.0
2017-Feb-10 01:24S 03°10' W 059°57'0 0.0
2017-Feb-10 00:29S 03°10' W 059°57'0 0.0
2017-Feb-09 23:33S 03°10' W 059°57'0 0.0
2017-Feb-09 22:33S 03°10' W 059°57'0 0.0
2017-Feb-09 21:27S 03°10' W 059°57'0 0.0
2017-Feb-09 20:32S 03°10' W 059°57'0 0.0
2017-Feb-09 19:29S 03°10' W 059°57'0 0.0
2017-Feb-09 18:28S 03°10' W 059°57'0 0.0
2017-Feb-09 17:29S 03°10' W 059°57'0 0.0
2017-Feb-09 15:17S 03°10' W 059°57'0 0.0
2017-Feb-09 14:29S 03°10' W 059°57'0 0.0
2017-Feb-09 13:29S 03°10' W 059°57'0 0.0
2017-Feb-09 12:32S 03°10' W 059°57'0 0.0
2017-Feb-09 11:26S 03°10' W 059°57'0 0.0
2017-Feb-09 10:34S 03°10' W 059°57'0 0.0
2017-Feb-09 09:33S 03°10' W 059°57'0 0.0
2017-Feb-09 08:33S 03°10' W 059°57'1 1.0
2017-Feb-09 07:27S 03°09' W 059°57'0 0.0
2017-Feb-09 05:33S 03°09' W 059°57'  

Dump ship's entire track history